Skip Navigation Links
NOAA logo - Click to go to the NOAA homepage
NOAA's National Weather Service
Alaska Aviation Weather Unit
  NWS logo - Click to go to the NWS homepage
Left Navbar Graphic     03 AKDT = 11 GMT

   
NOAA is celebrating 200 years of science, service, and stewardship. Visit the NOAA 200th celebration Web site to learn more.
USA.gov is the U.S. Government's official Web portal to all Federal, state and local government Web resources and services.
Facebook
NWS on Facebook

AAWU Home :: Display TAF Add Bookmark
TAF PAKW 290911Z 2909/3006 15005KT P6SM -SHRA SCT030 OVC045
     FM300300 VRB03KT P6SM -SHRA SCT006 OVC025
      AMD LTD TO CLD VIS AND WIND=

METAR PAKW 290553Z AUTO 00000KT 10SM FEW027 SCT035 BKN045 04/03 A2983 RMK AO2 RAE27 SLP103 P0001 60005 T00440033 10067 20044 53006 TSNO= SPECI PAKW 290603Z AUTO 00000KT 10SM BKN025 BKN031 BKN110 04/03 A2984 RMK AO2 T00440033 TSNO= METAR PAKW 290653Z AUTO 16006KT 10SM BKN027 OVC034 05/03 A2985 RMK AO2 RAB16E25 SLP108 P0000 T00500028 TSNO= METAR PAKW 290753Z AUTO 16006KT 10SM SCT022 BKN028 OVC070 05/02 A2985 RMK AO2 SLP108 T00500022 TSNO= SPECI PAKW 290804Z AUTO 16005KT 10SM SCT025 BKN032 OVC070 05/02 A2985 RMK AO2 T00500022 TSNO= METAR PAKW 290853Z AUTO 15006KT 10SM -RA FEW033 OVC045 05/02 A2985 RMK AO2 RAB13 SLP107 P0000 60000 T00500022 400940028 50004 TSNO= METAR PAKW 290953Z AUTO 02003KT 10SM 04/02 A2983 RMK AO2 RAE03 SLP102 P0000 T00440022 TSNO $= SPECI PAKW 291001Z AUTO 00000KT 10SM OVC023 04/02 A2983 RMK AO2 T00440022 TSNO $= METAR PAKW 291053Z AUTO 00000KT 10SM OVC022 04/03 A2982 RMK AO2 SLP098 T00440028 TSNO $=
 Alaska TAF Map

NOAA's National Weather Service
Alaska Aviation Weather Unit
6930 Sand Lake Road
Anchorage, AK 99502-1845
Disclaimer
Credits
Glossary
Privacy Policy
About Us
Career Opportunities
Contact AAWU Internet Services Site last modified: April, 17th 2012